Time;durP1;ratioP1;P1;durP2;ratioP2;P2;SDS_P1;SDS_P2;PMS_P1;PMS_P2;Temp;Humidity;BMP_temperature;BMP_pressure;BME280_temperature;BME280_humidity;BME280_pressure;Samples;Min_cycle;Max_cycle;Signal;HPM_P1;HPM_P2
2022/06/20 00:02:05;;;;;;;9.65;3.20;;;;;;;;;;7389505;19;21770;-77
2022/06/20 00:04:30;;;;;;;10.38;3.60;;;;;;;;;;7387765;19;20011;-77
2022/06/20 00:06:56;;;;;;;8.07;3.55;;;;;;;;;;7387443;19;20011;-77
2022/06/20 00:09:21;;;;;;;15.05;4.07;;;;;;;;;;7390795;19;20027;-77
2022/06/20 00:11:49;;;;;;;9.52;3.42;;;;;;;;;;7389745;19;20014;-77
2022/06/20 00:14:18;;;;;;;10.40;3.65;;;;;;;;;;7390888;19;20019;-77
2022/06/20 00:16:44;;;;;;;6.63;3.47;;;;;;;;;;7390592;19;20066;-77
2022/06/20 00:19:11;;;;;;;5.43;3.13;;;;;;;;;;7391667;19;20011;-76
2022/06/20 00:21:37;;;;;;;4.85;2.58;;;;;;;;;;7387089;19;20003;-77
2022/06/20 00:24:03;;;;;;;8.13;3.35;;;;;;;;;;7391682;19;19995;-77
2022/06/20 00:26:28;;;;;;;7.68;2.72;;;;;;;;;;7389650;19;20086;-77
2022/06/20 00:28:54;;;;;;;11.23;3.10;;;;;;;;;;7391638;19;20014;-77
2022/06/20 00:31:19;;;;;;;13.45;3.25;;;;;;;;;;7388374;19;20014;-77
2022/06/20 00:33:45;;;;;;;4.78;3.10;;;;;;;;;;7392565;19;20074;-77
2022/06/20 00:36:12;;;;;;;5.18;2.40;;;;;;;;;;7389594;19;20330;-77
2022/06/20 00:38:37;;;;;;;6.95;3.15;;;;;;;;;;7388518;19;20010;-77
2022/06/20 00:41:17;;;;;;;4.45;2.35;;;;;;;;;;7388575;19;20424;-77
2022/06/20 00:43:46;;;;;;;7.20;3.30;;;;;;;;;;7389688;19;20010;-77
2022/06/20 00:46:19;;;;;;;10.90;3.80;;;;;;;;;;7388886;19;20075;-77
2022/06/20 00:48:49;;;;;;;7.72;3.00;;;;;;;;;;7389756;19;20021;-77
2022/06/20 00:51:40;;;;;;;8.43;2.83;;;;;;;;;;7389243;19;20109;-77
2022/06/20 00:54:21;;;;;;;8.35;3.47;;;;;;;;;;7392211;19;20105;-77
2022/06/20 00:56:53;;;;;;;6.60;2.50;;;;;;;;;;7397354;19;20025;-77
2022/06/20 00:59:34;;;;;;;4.97;2.63;;;;;;;;;;7396895;19;20010;-77
2022/06/20 01:02:01;;;;;;;3.78;2.33;;;;;;;;;;7395295;19;20013;-77
2022/06/20 01:04:35;;;;;;;7.28;3.67;;;;;;;;;;7397859;19;20046;-77
2022/06/20 01:07:04;;;;;;;8.60;3.08;;;;;;;;;;7393736;19;20036;-77
2022/06/20 01:09:35;;;;;;;6.45;3.33;;;;;;;;;;7396033;19;20006;-77
2022/06/20 01:12:04;;;;;;;8.85;3.08;;;;;;;;;;7390838;19;20536;-77
2022/06/20 01:14:34;;;;;;;10.02;3.20;;;;;;;;;;7395811;19;20011;-77
2022/06/20 01:17:01;;;;;;;9.95;3.17;;;;;;;;;;7397349;19;20027;-77
2022/06/20 01:19:44;;;;;;;7.57;4.15;;;;;;;;;;7395219;19;20496;-77
2022/06/20 01:22:23;;;;;;;9.77;3.42;;;;;;;;;;7393694;19;20362;-77
2022/06/20 01:25:27;;;;;;;7.75;3.55;;;;;;;;;;7394616;19;19998;-77
2022/06/20 01:27:53;;;;;;;15.40;3.50;;;;;;;;;;7392316;19;20015;-77
2022/06/20 01:30:20;;;;;;;10.98;3.60;;;;;;;;;;7392385;19;20107;-77
2022/06/20 01:32:46;;;;;;;8.73;3.95;;;;;;;;;;7394046;19;20010;-77
2022/06/20 01:37:23;;;;;;;7.05;3.30;;;;;;;;;;7394001;19;20006;-77
2022/06/20 01:38:00;;;;;;;12.38;4.18;;;;;;;;;;7395162;19;20006;-78
2022/06/20 01:40:26;;;;;;;11.90;3.22;;;;;;;;;;7394945;19;20158;-77
2022/06/20 01:42:52;;;;;;;8.27;4.00;;;;;;;;;;7394204;19;20022;-77
2022/06/20 01:48:05;;;;;;;12.57;3.80;;;;;;;;;;7389467;19;20410;-77
2022/06/20 01:50:32;;;;;;;10.38;2.83;;;;;;;;;;7393816;19;20074;-77
2022/06/20 01:53:01;;;;;;;9.52;3.83;;;;;;;;;;7390885;19;20034;-77
2022/06/20 01:55:27;;;;;;;8.50;3.30;;;;;;;;;;7389632;19;20009;-77
2022/06/20 01:57:58;;;;;;;5.88;3.65;;;;;;;;;;7393200;19;20581;-77
2022/06/20 02:00:24;;;;;;;6.55;3.15;;;;;;;;;;7391177;19;20010;-77
2022/06/20 02:02:57;;;;;;;8.15;3.70;;;;;;;;;;7391536;19;20027;-77
2022/06/20 02:05:27;;;;;;;7.20;3.65;;;;;;;;;;7393077;19;20107;-77
2022/06/20 02:07:54;;;;;;;14.38;3.58;;;;;;;;;;7391284;19;20025;-77
2022/06/20 02:10:31;;;;;;;4.63;3.15;;;;;;;;;;7393970;19;20683;-77
2022/06/20 02:13:00;;;;;;;10.63;3.90;;;;;;;;;;7393563;19;20014;-77
2022/06/20 02:15:26;;;;;;;6.05;3.45;;;;;;;;;;7394093;19;20023;-77
2022/06/20 02:17:52;;;;;;;7.38;2.95;;;;;;;;;;7393389;19;20014;-77
2022/06/20 02:20:21;;;;;;;10.02;3.13;;;;;;;;;;7394805;19;20003;-77
2022/06/20 02:22:49;;;;;;;8.02;3.05;;;;;;;;;;7392961;19;20541;-77
2022/06/20 02:25:18;;;;;;;4.20;2.78;;;;;;;;;;7393323;19;20472;-77
2022/06/20 02:27:53;;;;;;;11.35;3.60;;;;;;;;;;7392279;19;20014;-77
2022/06/20 02:30:19;;;;;;;9.45;3.30;;;;;;;;;;7393671;19;20011;-77
2022/06/20 02:32:49;;;;;;;7.80;3.40;;;;;;;;;;7390946;19;20017;-77
2022/06/20 02:35:19;;;;;;;11.15;3.80;;;;;;;;;;7392720;19;20066;-77
2022/06/20 02:37:46;;;;;;;9.25;3.83;;;;;;;;;;7394195;19;20014;-77
2022/06/20 02:40:15;;;;;;;10.27;3.58;;;;;;;;;;7390241;19;20345;-77
2022/06/20 02:42:58;;;;;;;11.32;2.97;;;;;;;;;;7392079;19;20041;-77
2022/06/20 02:45:24;;;;;;;9.52;3.47;;;;;;;;;;7390823;19;20014;-77
2022/06/20 02:47:52;;;;;;;14.95;3.83;;;;;;;;;;7389855;19;20013;-77
2022/06/20 02:50:22;;;;;;;10.80;3.72;;;;;;;;;;7391452;19;20007;-77
2022/06/20 02:53:12;;;;;;;13.63;4.05;;;;;;;;;;7392296;19;20103;-77
2022/06/20 02:55:38;;;;;;;11.15;3.13;;;;;;;;;;7393950;19;20018;-77
2022/06/20 02:58:09;;;;;;;12.80;3.67;;;;;;;;;;7392461;19;20429;-77
2022/06/20 03:00:45;;;;;;;8.73;3.05;;;;;;;;;;7393651;19;20195;-77
2022/06/20 03:03:17;;;;;;;8.60;3.83;;;;;;;;;;7391154;19;20410;-77
2022/06/20 03:05:42;;;;;;;10.05;3.58;;;;;;;;;;7394056;19;19998;-77
2022/06/20 03:08:12;;;;;;;8.02;2.80;;;;;;;;;;7387043;19;20406;-77
2022/06/20 03:10:44;;;;;;;11.60;3.80;;;;;;;;;;7394000;19;20026;-77
2022/06/20 03:13:10;;;;;;;12.70;3.47;;;;;;;;;;7390532;19;20011;-77
2022/06/20 03:15:37;;;;;;;11.60;3.20;;;;;;;;;;7392913;19;20006;-77
2022/06/20 03:18:06;;;;;;;12.30;3.78;;;;;;;;;;7394702;19;20363;-77
2022/06/20 03:20:33;;;;;;;9.02;2.83;;;;;;;;;;7397207;19;20069;-77
2022/06/20 03:23:08;;;;;;;11.77;3.60;;;;;;;;;;7390363;19;20014;-77
2022/06/20 03:25:36;;;;;;;9.52;4.00;;;;;;;;;;7392175;19;20011;-77
2022/06/20 03:28:02;;;;;;;7.90;3.30;;;;;;;;;;7389783;19;20029;-77
2022/06/20 03:30:34;;;;;;;14.65;3.80;;;;;;;;;;7390699;19;20015;-77
2022/06/20 03:33:04;;;;;;;7.97;2.42;;;;;;;;;;7388957;19;20091;-77
2022/06/20 03:35:31;;;;;;;8.85;3.10;;;;;;;;;;7392406;19;20105;-77
2022/06/20 03:37:58;;;;;;;8.68;2.30;;;;;;;;;;7391157;19;20006;-78
2022/06/20 03:40:25;;;;;;;14.40;3.53;;;;;;;;;;7393253;19;20007;-77
2022/06/20 03:42:55;;;;;;;8.98;3.60;;;;;;;;;;7392618;19;20330;-77
2022/06/20 03:45:23;;;;;;;8.77;3.33;;;;;;;;;;7390437;19;20034;-77
2022/06/20 03:48:02;;;;;;;6.40;2.65;;;;;;;;;;7391061;19;20085;-77
2022/06/20 03:50:35;;;;;;;9.43;3.60;;;;;;;;;;7392155;19;20490;-77
2022/06/20 03:53:07;;;;;;;16.13;3.85;;;;;;;;;;7387970;19;20007;-77
2022/06/20 03:56:17;;;;;;;8.18;3.05;;;;;;;;;;7391324;19;20430;-77
2022/06/20 03:59:07;;;;;;;8.07;3.38;;;;;;;;;;7385090;19;20011;-77
2022/06/20 04:01:48;;;;;;;10.38;3.17;;;;;;;;;;7388362;19;20076;-77
2022/06/20 04:04:23;;;;;;;13.68;3.50;;;;;;;;;;7391112;19;20014;-77
2022/06/20 04:07:00;;;;;;;9.13;3.17;;;;;;;;;;7389553;19;20370;-77
2022/06/20 04:12:39;;;;;;;8.30;3.27;;;;;;;;;;7390105;19;20034;-77
2022/06/20 04:15:19;;;;;;;9.63;3.53;;;;;;;;;;7390088;19;20034;-77
2022/06/20 04:18:51;;;;;;;8.15;3.42;;;;;;;;;;7392066;19;20022;-77
2022/06/20 04:20:54;;;;;;;10.50;3.15;;;;;;;;;;7387492;19;20018;-77
2022/06/20 04:23:38;;;;;;;16.02;3.85;;;;;;;;;;7389104;19;20019;-77
2022/06/20 04:26:35;;;;;;;12.85;3.70;;;;;;;;;;7389608;19;20009;-77
2022/06/20 04:29:09;;;;;;;9.90;4.03;;;;;;;;;;7387088;19;20011;-77
2022/06/20 04:31:52;;;;;;;9.43;3.60;;;;;;;;;;7389396;19;20010;-77
2022/06/20 04:34:26;;;;;;;8.55;3.20;;;;;;;;;;7388603;19;20371;-77
2022/06/20 04:36:54;;;;;;;16.05;3.70;;;;;;;;;;7391686;19;20013;-77
2022/06/20 04:39:39;;;;;;;7.90;3.20;;;;;;;;;;7389768;19;20031;-77
2022/06/20 04:42:12;;;;;;;12.23;3.30;;;;;;;;;;7390462;19;20139;-77
2022/06/20 04:45:02;;;;;;;10.15;3.03;;;;;;;;;;7388078;19;20038;-77
2022/06/20 04:47:54;;;;;;;10.70;3.63;;;;;;;;;;7387822;19;20423;-77
2022/06/20 04:50:25;;;;;;;8.80;3.35;;;;;;;;;;7388469;19;20526;-77
2022/06/20 04:52:53;;;;;;;7.68;2.90;;;;;;;;;;7388943;19;20002;-77
2022/06/20 04:55:22;;;;;;;10.50;3.00;;;;;;;;;;7390229;19;20015;-77
2022/06/20 04:57:49;;;;;;;7.13;3.10;;;;;;;;;;7388046;19;20496;-77
2022/06/20 05:00:19;;;;;;;9.05;3.95;;;;;;;;;;7388458;19;20018;-77
2022/06/20 05:02:47;;;;;;;9.25;2.85;;;;;;;;;;7383468;19;20045;-77
2022/06/20 05:05:18;;;;;;;13.73;3.55;;;;;;;;;;7388845;19;20011;-77
2022/06/20 05:07:45;;;;;;;8.00;3.67;;;;;;;;;;7384279;19;20002;-77
2022/06/20 05:10:13;;;;;;;12.48;3.75;;;;;;;;;;7386643;19;20015;-77
2022/06/20 05:12:48;;;;;;;9.77;3.50;;;;;;;;;;7387345;19;20007;-77
2022/06/20 05:15:21;;;;;;;12.27;3.70;;;;;;;;;;7380151;19;20021;-77
2022/06/20 05:17:48;;;;;;;7.63;3.25;;;;;;;;;;7383737;19;20006;-77
2022/06/20 05:20:22;;;;;;;10.20;3.15;;;;;;;;;;7390355;19;20018;-77
2022/06/20 05:22:59;;;;;;;15.48;3.58;;;;;;;;;;7386620;19;20003;-77
2022/06/20 05:25:27;;;;;;;6.07;2.92;;;;;;;;;;7379244;19;20473;-77
2022/06/20 05:27:57;;;;;;;8.80;3.20;;;;;;;;;;7382843;19;20470;-77
2022/06/20 05:30:28;;;;;;;13.15;3.40;;;;;;;;;;7384391;19;20166;-77
2022/06/20 05:33:03;;;;;;;7.15;3.10;;;;;;;;;;7386893;19;20010;-77
2022/06/20 05:35:42;;;;;;;;;;;;;;;;;;7388148;19;20014;-77
2022/06/20 05:38:18;;;;;;;10.65;3.47;;;;;;;;;;7385987;19;19915;-77
2022/06/20 05:40:48;;;;;;;7.35;3.25;;;;;;;;;;7387471;19;20085;-76
2022/06/20 05:43:20;;;;;;;7.25;3.15;;;;;;;;;;7388957;19;20011;-76
2022/06/20 05:45:57;;;;;;;7.80;3.33;;;;;;;;;;7384232;19;20007;-76
2022/06/20 05:48:29;;;;;;;5.75;2.85;;;;;;;;;;7388733;19;20093;-77
2022/06/20 05:51:00;;;;;;;6.68;3.20;;;;;;;;;;7393177;19;20013;-77
2022/06/20 05:53:42;;;;;;;16.20;3.50;;;;;;;;;;7391895;19;20011;-76
2022/06/20 05:56:19;;;;;;;17.73;4.13;;;;;;;;;;7384971;19;20014;-76
2022/06/20 05:58:46;;;;;;;10.27;3.30;;;;;;;;;;7389385;19;20014;-77
2022/06/20 06:01:16;;;;;;;10.40;3.17;;;;;;;;;;7390975;19;20021;-76
2022/06/20 06:04:00;;;;;;;8.60;2.65;;;;;;;;;;7387492;19;20018;-76
2022/06/20 06:06:41;;;;;;;9.75;3.55;;;;;;;;;;7394965;19;20006;-77
2022/06/20 06:09:12;;;;;;;6.90;2.90;;;;;;;;;;7385928;19;20010;-77
2022/06/20 06:11:43;;;;;;;12.43;3.38;;;;;;;;;;7393565;19;20414;-77
2022/06/20 06:14:36;;;;;;;9.27;3.40;;;;;;;;;;7395991;19;20015;-77
2022/06/20 06:17:22;;;;;;;9.55;3.60;;;;;;;;;;7392846;19;20021;-78
2022/06/20 06:19:50;;;;;;;;;;;;;;;;;;7387929;19;20376;-77
2022/06/20 06:22:32;;;;;;;7.68;3.08;;;;;;;;;;7390577;19;19915;-78
2022/06/20 06:25:15;;;;;;;7.40;3.15;;;;;;;;;;7394540;19;20007;-78
2022/06/20 06:27:41;;;;;;;17.65;3.45;;;;;;;;;;7386636;19;20034;-77
2022/06/20 06:30:16;;;;;;;8.98;3.08;;;;;;;;;;7391262;19;20003;-77
2022/06/20 06:32:48;;;;;;;10.57;3.00;;;;;;;;;;7391075;19;20018;-78
2022/06/20 06:35:19;;;;;;;7.28;3.10;;;;;;;;;;7391685;19;20003;-77
2022/06/20 06:38:05;;;;;;;9.13;2.45;;;;;;;;;;7392957;19;20031;-77
2022/06/20 06:40:33;;;;;;;6.10;2.60;;;;;;;;;;7392391;19;20030;-77
2022/06/20 06:43:00;;;;;;;4.47;2.33;;;;;;;;;;7394054;19;20401;-77
2022/06/20 06:45:30;;;;;;;12.13;2.83;;;;;;;;;;7396042;19;20017;-77
2022/06/20 06:48:04;;;;;;;7.43;2.67;;;;;;;;;;7392100;19;20017;-77
2022/06/20 06:50:47;;;;;;;8.40;2.42;;;;;;;;;;7394497;19;20010;-77
2022/06/20 06:53:16;;;;;;;7.95;2.53;;;;;;;;;;7394414;19;20007;-77
2022/06/20 06:55:46;;;;;;;10.90;2.78;;;;;;;;;;7396243;19;20477;-77
2022/06/20 06:58:18;;;;;;;5.82;2.50;;;;;;;;;;7395826;19;20020;-77
2022/06/20 07:00:48;;;;;;;9.75;3.15;;;;;;;;;;7395546;19;20014;-77
2022/06/20 07:03:32;;;;;;;14.20;3.38;;;;;;;;;;7392535;19;20019;-75
2022/06/20 07:06:03;;;;;;;9.55;2.42;;;;;;;;;;7393705;19;20014;-77
2022/06/20 07:08:33;;;;;;;11.52;2.50;;;;;;;;;;7388959;19;20372;-77
2022/06/20 07:11:14;;;;;;;10.10;3.08;;;;;;;;;;7394504;19;20014;-77
2022/06/20 07:14:03;;;;;;;11.05;2.90;;;;;;;;;;7391005;19;20018;-77
2022/06/20 07:16:49;;;;;;;11.63;2.88;;;;;;;;;;7393471;19;20349;-77
2022/06/20 07:19:15;;;;;;;10.82;2.42;;;;;;;;;;7394696;19;20098;-77
2022/06/20 07:21:42;;;;;;;10.15;2.67;;;;;;;;;;7394845;19;20040;-77
2022/06/20 07:24:13;;;;;;;18.20;3.22;;;;;;;;;;7392755;19;20011;-77
2022/06/20 07:26:48;;;;;;;10.30;3.10;;;;;;;;;;7392346;19;20013;-77
2022/06/20 07:29:19;;;;;;;;;;;;;;;;;;7394493;19;20457;-75
2022/06/20 07:31:49;;;;;;;9.63;2.50;;;;;;;;;;7393964;19;20322;-77
2022/06/20 07:34:19;;;;;;;6.57;2.55;;;;;;;;;;7394997;19;20007;-77
2022/06/20 07:36:54;;;;;;;7.03;2.50;;;;;;;;;;7394532;19;20345;-77
2022/06/20 07:39:26;;;;;;;10.60;2.85;;;;;;;;;;7392631;19;20125;-76
2022/06/20 07:41:58;;;;;;;7.65;2.58;;;;;;;;;;7393494;19;20010;-77
2022/06/20 07:44:34;;;;;;;12.73;3.10;;;;;;;;;;7394423;19;20011;-77
2022/06/20 07:47:08;;;;;;;8.18;3.22;;;;;;;;;;7393249;19;20014;-77
2022/06/20 07:49:41;;;;;;;11.13;3.20;;;;;;;;;;7391384;19;20015;-75
2022/06/20 07:52:35;;;;;;;11.90;3.00;;;;;;;;;;7393296;19;20002;-75
2022/06/20 07:55:07;;;;;;;9.20;2.83;;;;;;;;;;7393159;19;20008;-75
2022/06/20 07:57:38;;;;;;;6.60;3.00;;;;;;;;;;7393950;19;20013;-76
2022/06/20 08:00:06;;;;;;;8.50;3.13;;;;;;;;;;7392980;19;20014;-76
2022/06/20 08:02:49;;;;;;;9.52;2.90;;;;;;;;;;7392350;19;20014;-76
2022/06/20 08:05:24;;;;;;;8.40;2.92;;;;;;;;;;7390628;19;20477;-76
2022/06/20 08:08:05;;;;;;;7.63;2.80;;;;;;;;;;7390032;19;20023;-77
2022/06/20 08:10:39;;;;;;;11.57;2.97;;;;;;;;;;7388571;19;20015;-75
2022/06/20 08:13:12;;;;;;;14.60;3.13;;;;;;;;;;7392065;19;20354;-75
2022/06/20 08:15:46;;;;;;;11.50;2.80;;;;;;;;;;7390371;19;20411;-76
2022/06/20 08:18:12;;;;;;;6.18;2.90;;;;;;;;;;7392518;19;20023;-75
2022/06/20 08:20:42;;;;;;;10.32;2.92;;;;;;;;;;7393640;19;20469;-75
2022/06/20 08:23:15;;;;;;;6.68;2.97;;;;;;;;;;7391292;19;20007;-75
2022/06/20 08:25:55;;;;;;;8.55;3.35;;;;;;;;;;7392023;19;20006;-75
2022/06/20 08:28:26;;;;;;;4.70;2.67;;;;;;;;;;7391412;19;20003;-75
2022/06/20 08:31:09;;;;;;;8.38;2.70;;;;;;;;;;7391095;19;20023;-76
2022/06/20 08:33:56;;;;;;;12.40;3.20;;;;;;;;;;7388419;19;20010;-75
2022/06/20 08:36:32;;;;;;;11.05;3.15;;;;;;;;;;7391876;19;20477;-76
2022/06/20 08:39:09;;;;;;;8.70;2.40;;;;;;;;;;7392812;19;20027;-75
2022/06/20 08:42:10;;;;;;;6.25;2.50;;;;;;;;;;7391216;19;20524;-75
2022/06/20 08:44:41;;;;;;;6.32;2.60;;;;;;;;;;7392128;19;20436;-75
2022/06/20 08:47:40;;;;;;;6.90;2.60;;;;;;;;;;7390542;19;19999;-75
2022/06/20 08:50:25;;;;;;;8.68;2.67;;;;;;;;;;7392001;19;20390;-76
2022/06/20 08:52:56;;;;;;;;;;;;;;;;;;7392002;19;20513;-75
2022/06/20 08:56:00;;;;;;;9.65;2.90;;;;;;;;;;7391255;19;19927;-75
2022/06/20 08:59:02;;;;;;;7.03;2.60;;;;;;;;;;7391568;19;20026;-75
2022/06/20 09:01:32;;;;;;;5.80;2.45;;;;;;;;;;7389058;19;20006;-75
2022/06/20 09:04:07;;;;;;;8.27;2.47;;;;;;;;;;7390474;19;20007;-75
2022/06/20 09:06:48;;;;;;;6.93;2.50;;;;;;;;;;7391245;19;20007;-75
2022/06/20 09:09:30;;;;;;;6.25;2.30;;;;;;;;;;7391077;19;20003;-75
2022/06/20 09:12:19;;;;;;;7.80;2.55;;;;;;;;;;7390633;19;20002;-75
2022/06/20 09:15:02;;;;;;;6.22;2.65;;;;;;;;;;7393739;19;20011;-75
2022/06/20 09:17:50;;;;;;;4.03;2.33;;;;;;;;;;7396903;19;20473;-75
2022/06/20 09:20:48;;;;;;;6.05;2.13;;;;;;;;;;7397806;19;20011;-76
2022/06/20 09:23:33;;;;;;;6.00;2.45;;;;;;;;;;7395248;19;20010;-75
2022/06/20 09:26:07;;;;;;;11.68;2.47;;;;;;;;;;7398548;19;20089;-76
2022/06/20 09:29:10;;;;;;;6.97;2.10;;;;;;;;;;7395883;19;20098;-75
2022/06/20 09:32:07;;;;;;;5.22;2.15;;;;;;;;;;7395844;19;20688;-76
2022/06/20 09:35:08;;;;;;;5.30;2.22;;;;;;;;;;7393752;19;20021;-75
2022/06/20 09:37:42;;;;;;;4.75;2.20;;;;;;;;;;7395890;19;20476;-75
2022/06/20 09:40:28;;;;;;;6.78;2.08;;;;;;;;;;7397541;19;20014;-75
2022/06/20 09:43:22;;;;;;;5.45;2.17;;;;;;;;;;7396540;19;20034;-76
2022/06/20 09:46:01;;;;;;;8.60;2.65;;;;;;;;;;7396893;19;20100;-75
2022/06/20 09:48:39;;;;;;;5.32;2.28;;;;;;;;;;7396698;19;20050;-75
2022/06/20 09:51:23;;;;;;;7.05;2.33;;;;;;;;;;7396799;19;20007;-76
2022/06/20 09:54:10;;;;;;;5.72;2.40;;;;;;;;;;7394238;19;20010;-76
2022/06/20 09:56:42;;;;;;;8.55;2.40;;;;;;;;;;7397853;19;20027;-76
2022/06/20 09:59:31;;;;;;;9.52;2.20;;;;;;;;;;7395052;19;20493;-75
2022/06/20 10:02:02;;;;;;;6.13;2.17;;;;;;;;;;7396995;19;20057;-76
2022/06/20 10:04:36;;;;;;;11.30;2.90;;;;;;;;;;7394209;19;20382;-75
2022/06/20 10:07:12;;;;;;;4.50;2.03;;;;;;;;;;7395933;19;20013;-75
2022/06/20 10:09:50;;;;;;;6.18;2.40;;;;;;;;;;7396771;19;20030;-76
2022/06/20 10:12:21;;;;;;;9.55;2.00;;;;;;;;;;7395004;19;20020;-75
2022/06/20 10:15:05;;;;;;;5.20;1.98;;;;;;;;;;7394716;19;20070;-75
2022/06/20 10:17:49;;;;;;;2.90;1.95;;;;;;;;;;7392593;19;20049;-76
2022/06/20 10:20:37;;;;;;;6.25;2.22;;;;;;;;;;7394969;19;20109;-75
2022/06/20 10:23:18;;;;;;;5.32;2.30;;;;;;;;;;7395818;19;20548;-75
2022/06/20 10:26:05;;;;;;;5.47;2.10;;;;;;;;;;7395221;19;20003;-75
2022/06/20 10:28:50;;;;;;;9.18;1.98;;;;;;;;;;7393686;19;20091;-76
2022/06/20 10:31:18;;;;;;;;;;;;;;;;;;7395651;19;20034;-75
2022/06/20 10:33:59;;;;;;;6.68;2.05;;;;;;;;;;7395078;19;19984;-76
2022/06/20 10:36:33;;;;;;;5.97;2.28;;;;;;;;;;7395850;19;20795;-75
2022/06/20 10:39:09;;;;;;;7.20;2.03;;;;;;;;;;7394789;19;20006;-76
2022/06/20 10:41:51;;;;;;;7.78;2.10;;;;;;;;;;7395646;19;20013;-77
2022/06/20 10:44:31;;;;;;;5.35;2.45;;;;;;;;;;7395914;19;20034;-75
2022/06/20 10:47:18;;;;;;;4.82;2.08;;;;;;;;;;7395024;19;20034;-75
2022/06/20 10:49:54;;;;;;;2.90;1.83;;;;;;;;;;7392621;19;20002;-75
2022/06/20 10:52:41;;;;;;;4.57;1.63;;;;;;;;;;7392627;19;20014;-75
2022/06/20 10:55:37;;;;;;;5.93;1.85;;;;;;;;;;7396505;19;20019;-75
2022/06/20 10:58:08;;;;;;;8.77;1.88;;;;;;;;;;7390672;19;20045;-76
2022/06/20 11:00:41;;;;;;;3.35;1.80;;;;;;;;;;7383278;19;20021;-76
2022/06/20 11:03:19;;;;;;;3.72;2.15;;;;;;;;;;7385631;19;20040;-76
2022/06/20 11:06:10;;;;;;;5.70;2.00;;;;;;;;;;7393618;19;20478;-76
2022/06/20 11:08:57;;;;;;;7.10;1.95;;;;;;;;;;7389208;19;20366;-76
2022/06/20 11:11:45;;;;;;;3.97;1.75;;;;;;;;;;7393315;19;20025;-74
2022/06/20 11:14:36;;;;;;;3.15;1.60;;;;;;;;;;7389007;19;20594;-75
2022/06/20 11:17:24;;;;;;;6.03;1.75;;;;;;;;;;7391345;19;20010;-75
2022/06/20 11:20:08;;;;;;;5.47;2.13;;;;;;;;;;7389754;19;20094;-75
2022/06/20 11:22:41;;;;;;;4.68;2.10;;;;;;;;;;7389425;19;20010;-75
2022/06/20 11:25:09;;;;;;;8.18;2.10;;;;;;;;;;7392611;19;20018;-75
2022/06/20 11:27:51;;;;;;;3.63;2.13;;;;;;;;;;7391162;19;20437;-75
2022/06/20 11:30:49;;;;;;;3.22;1.67;;;;;;;;;;7388791;19;20418;-77
2022/06/20 11:36:23;;;;;;;;;;;;;;;;;;7395108;19;20034;-75
2022/06/20 11:38:57;;;;;;;5.28;2.17;;;;;;;;;;7388556;19;20298;-75
2022/06/20 11:41:35;;;;;;;3.67;2.03;;;;;;;;;;7392065;19;20442;-76
2022/06/20 11:44:34;;;;;;;5.15;1.70;;;;;;;;;;7390718;19;19998;-75
2022/06/20 11:47:27;;;;;;;4.53;1.70;;;;;;;;;;7379347;19;20081;-75
2022/06/20 11:50:30;;;;;;;4.40;2.00;;;;;;;;;;7389571;19;20146;-76
2022/06/20 11:53:06;;;;;;;4.47;1.73;;;;;;;;;;7390984;19;20018;-77
2022/06/20 11:55:41;;;;;;;6.95;1.73;;;;;;;;;;7389876;19;20017;-76
2022/06/20 11:58:32;;;;;;;5.40;2.20;;;;;;;;;;7389332;19;20021;-75
2022/06/20 12:01:06;;;;;;;6.25;1.90;;;;;;;;;;7390596;19;20480;-75
2022/06/20 12:03:34;;;;;;;3.70;1.90;;;;;;;;;;7388862;19;20014;-75
2022/06/20 12:06:03;;;;;;;4.03;1.90;;;;;;;;;;7390755;19;20003;-76
2022/06/20 12:08:33;;;;;;;7.13;2.10;;;;;;;;;;7388435;19;20632;-75
2022/06/20 12:11:27;;;;;;;3.47;1.63;;;;;;;;;;7392157;19;20042;-75
2022/06/20 12:14:25;;;;;;;2.58;1.77;;;;;;;;;;7386508;19;20022;-75
2022/06/20 12:17:05;;;;;;;2.42;1.77;;;;;;;;;;7385148;19;20366;-77
2022/06/20 12:25:38;;;;;;;6.95;1.90;;;;;;;;;;7391293;19;20112;-75
2022/06/20 12:28:25;;;;;;;2.83;1.70;;;;;;;;;;7388616;19;20010;-75
2022/06/20 12:31:08;;;;;;;4.45;2.03;;;;;;;;;;7384826;19;20038;-75
2022/06/20 12:34:12;;;;;;;2.97;2.08;;;;;;;;;;7388201;19;20010;-75
2022/06/20 12:36:41;;;;;;;3.38;2.05;;;;;;;;;;7387958;19;20010;-76
2022/06/20 12:39:15;;;;;;;5.20;2.30;;;;;;;;;;7388769;19;20445;-75
2022/06/20 12:41:44;;;;;;;4.00;2.05;;;;;;;;;;7389067;19;20049;-75
2022/06/20 12:44:45;;;;;;;4.18;1.75;;;;;;;;;;7388280;19;20007;-75
2022/06/20 12:47:34;;;;;;;2.33;1.90;;;;;;;;;;7385658;19;20434;-76
2022/06/20 12:50:19;;;;;;;5.00;2.30;;;;;;;;;;7394024;19;20014;-75
2022/06/20 12:53:17;;;;;;;7.10;2.10;;;;;;;;;;7395917;19;20015;-75
2022/06/20 12:55:55;;;;;;;3.25;2.10;;;;;;;;;;7393921;19;20003;-76
2022/06/20 12:58:47;;;;;;;5.38;1.90;;;;;;;;;;7396868;19;20042;-77
2022/06/20 13:01:35;;;;;;;5.40;2.10;;;;;;;;;;7396517;19;20015;-76
2022/06/20 13:04:03;;;;;;;4.00;2.22;;;;;;;;;;7391143;19;20007;-75
2022/06/20 13:06:57;;;;;;;5.78;2.65;;;;;;;;;;7396062;19;20529;-75
2022/06/20 13:09:43;;;;;;;6.65;2.28;;;;;;;;;;7392373;19;20014;-75
2022/06/20 13:12:29;;;;;;;6.78;2.38;;;;;;;;;;7391783;19;20024;-75
2022/06/20 13:15:16;;;;;;;6.35;2.33;;;;;;;;;;7393305;19;20011;-75
2022/06/20 13:18:11;;;;;;;4.72;2.40;;;;;;;;;;7396984;19;20006;-75
2022/06/20 13:20:39;;;;;;;4.25;2.05;;;;;;;;;;7394551;19;20364;-75
2022/06/20 13:23:29;;;;;;;4.47;2.08;;;;;;;;;;7387480;19;20010;-75
2022/06/20 13:26:08;;;;;;;4.82;2.25;;;;;;;;;;7396915;19;20011;-75
2022/06/20 13:28:42;;;;;;;4.38;2.28;;;;;;;;;;7395300;19;20017;-75
2022/06/20 13:31:16;;;;;;;9.95;2.20;;;;;;;;;;7394297;19;20015;-75
2022/06/20 13:33:55;;;;;;;3.38;2.50;;;;;;;;;;7385562;19;20021;-75
2022/06/20 13:36:33;;;;;;;5.28;2.60;;;;;;;;;;7392129;19;20046;-76
2022/06/20 13:39:57;;;;;;;3.00;2.15;;;;;;;;;;7389275;19;20014;-75
2022/06/20 13:42:38;;;;;;;5.22;2.67;;;;;;;;;;7388926;19;20493;-76
2022/06/20 13:45:18;;;;;;;5.38;2.40;;;;;;;;;;7391596;19;20006;-76
2022/06/20 13:48:22;;;;;;;6.35;2.60;;;;;;;;;;7394130;19;19999;-76
2022/06/20 13:51:08;;;;;;;2.42;2.13;;;;;;;;;;7394784;19;20010;-76
2022/06/20 13:53:56;;;;;;;6.18;2.00;;;;;;;;;;7388065;19;20030;-75
2022/06/20 13:56:50;;;;;;;5.30;2.13;;;;;;;;;;7395125;19;20018;-76
2022/06/20 13:59:25;;;;;;;9.45;2.50;;;;;;;;;;7391890;19;20077;-75
2022/06/20 14:02:00;;;;;;;;;;;;;;;;;;7389318;19;20022;-76
2022/06/20 14:04:29;;;;;;;2.78;2.13;;;;;;;;;;7391362;19;19919;-76
2022/06/20 14:06:59;;;;;;;3.13;2.30;;;;;;;;;;7395425;19;20086;-75
2022/06/20 14:09:31;;;;;;;5.78;2.30;;;;;;;;;;7388032;19;20450;-75
2022/06/20 14:12:17;;;;;;;5.03;2.40;;;;;;;;;;7395306;19;20031;-75
2022/06/20 14:14:49;;;;;;;15.27;3.38;;;;;;;;;;7396479;19;20018;-77
2022/06/20 14:17:27;;;;;;;12.32;2.30;;;;;;;;;;7395789;19;20016;-76
2022/06/20 14:19:57;;;;;;;11.48;2.40;;;;;;;;;;7395935;19;20007;-75
2022/06/20 14:22:31;;;;;;;5.53;2.50;;;;;;;;;;7393745;19;20011;-75
2022/06/20 14:24:58;;;;;;;7.30;2.50;;;;;;;;;;7393777;19;20395;-75
2022/06/20 14:27:26;;;;;;;7.15;2.10;;;;;;;;;;7393230;19;20115;-75
2022/06/20 14:30:05;;;;;;;7.47;1.85;;;;;;;;;;7392759;19;20619;-75
2022/06/20 14:32:42;;;;;;;3.58;1.70;;;;;;;;;;7393422;19;19998;-75
2022/06/20 14:35:27;;;;;;;5.53;2.03;;;;;;;;;;7392920;19;20074;-75
2022/06/20 14:38:04;;;;;;;5.13;1.80;;;;;;;;;;7394866;19;20533;-75
2022/06/20 14:40:43;;;;;;;6.38;1.70;;;;;;;;;;7395927;19;20029;-77
2022/06/20 14:43:31;;;;;;;9.07;1.95;;;;;;;;;;7392611;19;20446;-76
2022/06/20 14:46:09;;;;;;;7.43;1.70;;;;;;;;;;7389986;19;20011;-78
2022/06/20 14:48:43;;;;;;;3.63;1.73;;;;;;;;;;7389543;19;20021;-76
2022/06/20 14:51:37;;;;;;;3.58;1.73;;;;;;;;;;7390407;19;20048;-77
2022/06/20 14:54:19;;;;;;;3.47;1.70;;;;;;;;;;7389011;19;20347;-80
2022/06/20 14:56:44;;;;;;;3.58;1.33;;;;;;;;;;7392366;19;20015;-79
2022/06/20 14:59:33;;;;;;;5.85;1.77;;;;;;;;;;7393106;19;20006;-76
2022/06/20 15:02:23;;;;;;;5.68;1.77;;;;;;;;;;7388348;19;20022;-78
2022/06/20 15:04:55;;;;;;;4.28;1.83;;;;;;;;;;7387510;19;20461;-77
2022/06/20 15:07:36;;;;;;;6.43;2.08;;;;;;;;;;7391200;19;20006;-77
2022/06/20 15:10:24;;;;;;;8.18;1.90;;;;;;;;;;7388850;19;20090;-78
2022/06/20 15:12:58;;;;;;;7.70;1.75;;;;;;;;;;7383352;19;20003;-77
2022/06/20 15:15:44;;;;;;;5.53;2.30;;;;;;;;;;7390503;19;20007;-78
2022/06/20 15:18:33;;;;;;;4.90;1.75;;;;;;;;;;7389288;19;20497;-78
2022/06/20 15:21:07;;;;;;;4.40;1.73;;;;;;;;;;7393117;19;20510;-77
2022/06/20 15:24:14;;;;;;;5.43;1.80;;;;;;;;;;7380910;19;20023;-78
2022/06/20 15:26:40;;;;;;;5.00;1.83;;;;;;;;;;7392668;19;20116;-78
2022/06/20 15:29:12;;;;;;;5.47;1.70;;;;;;;;;;7393331;19;20091;-78
2022/06/20 15:31:55;;;;;;;5.55;2.17;;;;;;;;;;7391047;19;20014;-80
2022/06/20 15:34:32;;;;;;;4.93;1.60;;;;;;;;;;7388318;19;20002;-78
2022/06/20 15:37:19;;;;;;;3.25;1.70;;;;;;;;;;7390865;19;20405;-78
2022/06/20 15:40:01;;;;;;;3.13;1.50;;;;;;;;;;7389921;19;20026;-78
2022/06/20 15:42:40;;;;;;;3.13;1.67;;;;;;;;;;7388561;19;20489;-78
2022/06/20 15:45:29;;;;;;;2.50;1.40;;;;;;;;;;7392692;19;20360;-77
2022/06/20 15:48:07;;;;;;;8.25;1.67;;;;;;;;;;7388407;19;20006;-77
2022/06/20 15:50:41;;;;;;;6.78;1.80;;;;;;;;;;7391180;19;20007;-77
2022/06/20 15:53:06;;;;;;;6.35;1.67;;;;;;;;;;7387357;19;20480;-78
2022/06/20 15:55:44;;;;;;;3.92;1.40;;;;;;;;;;7388857;19;20010;-78
2022/06/20 15:58:16;;;;;;;3.80;1.77;;;;;;;;;;7392349;19;20406;-78